Garrisonville, Virginia
Current Conditions -  °F | °C
As of 8:55 AM on Wednesday 26 Nov 2014 (Local Time) from KRMN Reporting Station
Moderate Rain Moderate Rain  
Wind Chill: 35°   Ceiling: 2100
Heat Index: 41°   Visibility: 5mi
Dew Point: 41°   Wind: 9mph
Humidity: 100%   Direction: 30°NNE
Pressure: 30.08"   Gusts: 18mph
Location:  38.48°N, 77.43°W
Report Text: KRMN 261355Z AUTO 03008G16KT 350V050 5SM RA BKN021 OVC028 05/05 A3008 RMK AO2 P0011 T00500050
Loading
Personal Weather Stations






























Interactive Weather Map New forecast layout! Learn more

10-Day Weather Forecast

Advertisements
Track Severe Weather on mobile